Richmond, MA (01254)

12:13 PM EST on December 21, 2014 (GMT -0500)
KMARICHM2 | Change Station
CLOSE
Current Station
Personal Weather Station
Location: Richmond, MA
Elevation: 1073 ft
Nearby Weather Stations
Active Advisory: Special Statement

Elev 1073 ft 42.36 °N, 73.37 °W | Updated 51 seconds ago

Snow
Snow
28.5 °F
Feels Like 28 °F
N
0.0
Wind Variable Wind from WNW
Gusts 0.0 mph

Today
High -- | Low -- °F
--% Chance of Precip.
Yesterday
High -- | Low -- °F
Precip. -- in
7:19 AM 4:23 PM
Waning Crescent, 0% visible
Pressure 30.24 in
Visibility 1.2 miles
Clouds Few 1000 ft
Mostly Cloudy 1700 ft
Overcast 2300 ft
Windchill 28 °F
Dew Point 22 °F
Humidity 76%
Rainfall 0.00 in
Snow Depth Not available.
UV 1 out of 12
Pollen .10 out of 12
Air Quality Not available.
Flu Activity Not available.
SPECI KPSF 211704Z AUTO 30004KT 1 1/4SM -SN BR FEW010 BKN017 OVC023 M02/M03 A3024 RMK AO2 P0000 T10171033

More Conditions Fewer Conditions

Pressure 30.24 in
Visibility 1.2 miles
Clouds Few 1000 ft
Mostly Cloudy 1700 ft
Overcast 2300 ft
Windchill 28 °F
Dew Point 22 °F
Humidity 76%
Rainfall 0.00 in
Snow Depth Not available.
UV 1 out of 12
Pollen .10 out of 12
Air Quality Not available.
Flu Activity Not available.
SPECI KPSF 211704Z AUTO 30004KT 1 1/4SM -SN BR FEW010 BKN017 OVC023 M02/M03 A3024 RMK AO2 P0000 T10171033

More Conditions Fewer Conditions

10-Day Weather Forecast

Almanac

Astronomy

Dec. 21, 2014 Rise Set
Actual Time
Civil Twilight
Nautical Twilight
Astronomical Twilight
Moon
Length of Visible Light
Length of Day
Tomorrow will be .
, % of the Moon is Illuminated

Today's Extremes

State Highs State Lows

Community

WunderPhotos

Upload Photos

1,779,442 photos uploaded!

WunderBlogs® & News

Nearby

Air Quality

  Air Quality AQ Index Pollutant
Not available.

Snow Depth

Station Depth Elevation

Earthquake Activity

City Distance Mag. Time & Date
Minimum magnitude displayed is 2.5.

Coastal Water Temperatures

Place Temperature

Nearby Weather Stations